x

9416841 - Arena Cove, Ca (anvc1) Weather Station

5:54pm - Thu 22nd Feb 2018 All times are PST. -8 hours from GMT.

  • Wind
    10mph, 17mph gusts
  • Sea Temp 49°f
  • Air Temp 46°f
  • Sea Pressure 1024mb
  • 9416841 - Arena Cove, Ca
  • 9416841 - Arena Cove, Ca

More Historic Weather Station data

Upgrade to MSW Pro to gain access to the past 30 days of data for over 8000 Wavebouys and Weather Stations around the globe.

Join

Comparision Forecast

View Surf forecast
   
Thu 02/22 5:54pm 10 17 mph 1024mb 49f 46f
5:48pm 11 18 mph 1023.9mb 49f 47f
5:42pm 10 17 mph 1023.9mb 49f 47f
5:36pm 9 18 mph 1023.9mb 49f 47f
5:30pm 8 18 mph 1023.9mb 49f 47f
5:24pm 13 18 mph 1023.9mb 49f 47f
5:18pm 11 20 mph 1023.9mb 49f 47f
5:12pm 14 22 mph 1023.8mb 49f 47f
5:06pm 11 22 mph 1023.8mb 49f 47f
5:00pm 17 22 mph 1023.7mb 49f 47f
4:54pm 9 18 mph 1023.7mb 49f 47f
4:48pm 9 17 mph 1023.7mb 49f 47f
4:42pm 10 17 mph 1023.6mb 49f 47f
4:36pm 10 16 mph 1023.6mb 49f 47f
4:30pm 11 17 mph 1023.6mb 49f 47f
4:24pm 10 15 mph 1023.5mb 49f 48f
4:18pm 11 17 mph 1023.5mb 49f 48f
4:12pm 14 23 mph 1023.5mb 49f 47f
4:06pm 11 20 mph 1023.5mb 49f 48f
4:00pm 13 17 mph 1023.5mb 49f 48f
3:54pm 10 22 mph 1023.5mb 49f 48f
3:48pm 13 21 mph 1023.5mb 49f 48f
3:42pm 13 22 mph 1023.5mb 49f 47f
3:36pm 10 15 mph 1023.6mb 49f 47f
3:30pm 6 11 mph 1023.6mb 49f 46f
3:24pm 6 13 mph 1023.7mb 49f 46f
3:18pm 11 22 mph 1023.9mb 49f 47f
3:12pm 14 21 mph 1023.7mb 49f 47f
3:06pm 16 23 mph 1023.7mb 49f 47f
3:00pm 15 22 mph 1023.7mb 49f 46f
2:54pm 14 23 mph 1023.8mb 49f 46f
2:48pm 14 28 mph 1023.8mb 49f 47f
2:42pm 16 23 mph 1023.9mb 49f 46f
2:36pm 14 24 mph 1023.8mb 49f 47f
2:30pm 13 18 mph 1023.9mb 49f 48f
2:24pm 13 21 mph 1024mb 49f 47f
2:18pm 14 21 mph 1024mb 49f 46f
2:12pm 14 18 mph 1024.1mb 49f 47f
2:06pm 11 20 mph 1024.1mb 49f 47f
2:00pm 14 20 mph 1024.1mb 49f 47f
1:54pm 11 23 mph 1024.1mb 49f 47f
1:48pm 11 17 mph 1024.3mb 49f 47f
1:42pm 13 20 mph 1024.5mb 49f 46f
1:36pm 14 24 mph 1024.5mb 49f 46f
1:30pm 9 15 mph 1024.5mb 49f 46f
1:24pm 9 18 mph 1024.6mb 49f 46f
1:18pm 7 13 mph 1024.6mb 49f 45f
1:12pm 6 15 mph 1024.7mb 49f 44f
1:06pm 8 15 mph 1024.8mb 49f 44f
1:00pm 10 18 mph 1025mb 49f 44f
12:54pm 16 31 mph 1025.1mb 49f 44f
12:48pm 23 32 mph 1025.2mb 49f 44f
12:42pm 10 18 mph 1025mb 49f 47f
12:36pm 9 15 mph 1024.9mb 49f 48f
12:30pm 7 14 mph 1024.9mb 49f 47f
12:24pm 7 11 mph 1025mb 49f 47f
12:18pm 7 18 mph 1025.1mb 49f 46f
12:12pm 9 15 mph 1025.3mb 49f 46f
12:06pm 8 16 mph 1025.4mb 49f 46f
12:00pm 9 15 mph 1025.4mb 49f 45f
11:54am 6 11 mph 1025.5mb 49f 46f
11:48am 6 15 mph 1025.2mb 49f 47f
11:42am 6 13 mph 1025.2mb 49f 47f
11:36am 3 6 mph 1025.2mb 49f 48f
11:30am 3 9 mph 1025.2mb 49f 47f
11:24am 1 8 mph 1025.2mb 49f 46f
11:18am 1 11 mph 1025.3mb 49f 45f
11:12am 3 13 mph 1025.5mb 49f 45f
11:06am 7 14 mph 1025.8mb 49f 46f
11:00am 7 10 mph 1025.2mb 48f 47f
10:54am 8 13 mph 1025.1mb 48f 47f
10:48am 7 11 mph 1025.2mb 48f 47f
10:42am 6 10 mph 1025.3mb 49f 46f
10:36am 2 5 mph 1025.3mb 48f 47f
10:30am 6 9 mph 1025.3mb 48f 46f
10:24am 5 8 mph 1025.2mb 48f 46f
10:18am 2 7 mph 1025.2mb 49f 46f
10:12am 3 7 mph 1025.2mb 49f 45f
10:06am 5 7 mph 1025.3mb 49f 45f
10:00am 2 6 mph 1025.4mb 48f 45f
9:54am 2 6 mph 1025.4mb 48f 45f
9:48am  -  2 mph 1025.3mb 49f -
9:42am 1 5 mph 1025.3mb 49f 44f
9:36am 3 6 mph 1025.4mb 48f 44f
9:30am 3 5 mph 1025.5mb 48f 44f
9:24am 2 6 mph 1025.4mb 48f 45f
9:18am 3 8 mph 1025.4mb 48f 45f
9:12am  -  7 mph 1025.1mb 48f 46f
9:06am  -  3 mph 1025.1mb 48f 46f
9:00am 2 5 mph 1025.1mb 48f 45f
8:54am 2 3 mph 1025.3mb 48f 45f
8:48am  -  5 mph 1025.3mb 48f 45f
8:42am 1 6 mph 1025.3mb 48f 45f
8:36am 2 6 mph 1025.3mb 48f 45f
8:30am 3 5 mph 1025.1mb 48f 45f
8:24am 2 7 mph 1025.1mb 48f 45f
8:18am 2 5 mph 1025mb 48f 44f
8:12am 3 6 mph 1024.9mb 48f 44f
8:06am 3 6 mph 1024.8mb 48f 44f
8:00am 3 5 mph 1024.9mb 48f 44f
7:54am 2 5 mph 1024.9mb 48f 43f
7:48am  -  3 mph 1024.9mb 48f 43f
7:42am 2 6 mph 1024.8mb 48f 43f
7:36am 2 6 mph 1024.8mb 48f 42f
7:30am 1 3 mph 1024.6mb 48f 42f
7:24am 2 5 mph 1024.5mb 48f 42f
7:18am 3 6 mph 1024.6mb 48f 42f
7:12am 2 6 mph 1024.6mb 48f 42f
7:06am 3 6 mph 1024.6mb 48f 42f
7:00am 2 6 mph 1024.6mb 48f 42f
6:54am 2 8 mph 1024.7mb 48f 42f
6:48am 3 6 mph 1024.6mb 48f 42f
6:42am 1 6 mph 1024.5mb 48f 42f
6:36am 1 8 mph 1024.6mb 48f 42f
6:30am 3 7 mph 1024.5mb 48f 42f
6:24am 2 6 mph 1024.6mb 48f 42f
6:18am 2 5 mph 1024.5mb 48f 43f
6:12am 2 5 mph 1024.5mb 48f 43f
6:06am 3 7 mph 1024.5mb 48f 43f
6:00am 1 5 mph 1024.4mb 48f 43f
5:54am 1 5 mph 1024.4mb 48f 43f
5:48am 2 5 mph 1024.4mb 49f 43f
5:42am 1 6 mph 1024.3mb 49f 43f
5:36am 1 3 mph 1024.3mb 49f 43f
5:30am 1 3 mph 1024.2mb 49f 43f
5:24am 2 6 mph 1024.2mb 49f 42f
5:18am 2 6 mph 1024.2mb 49f -
5:12am 2 8 mph 1024.2mb 49f 43f
5:06am 2 6 mph 1024.1mb 49f 43f
5:00am 2 8 mph 1024.1mb 49f 43f
4:54am 2 7 mph 1024.1mb 49f 43f
4:48am 3 7 mph 1024.1mb 49f 43f
4:42am 3 8 mph 1024mb 49f 43f
4:36am 3 6 mph 1024mb 49f 43f
4:30am 2 10 mph 1024mb 49f 43f
4:24am 3 6 mph 1023.9mb 49f 43f
4:18am 2 6 mph 1023.9mb 49f 43f
4:12am 2 6 mph 1023.9mb 49f 43f
4:06am 2 6 mph 1023.9mb 49f 43f
4:00am 2 9 mph 1023.9mb 49f 43f
3:54am 2 8 mph 1023.8mb 49f 44f
3:48am 3 7 mph - - -
3:42am 2 6 mph 1023.8mb 49f 44f
3:36am 2 6 mph 1023.8mb 49f 44f
3:30am 2 6 mph 1023.8mb 49f 44f
3:24am 2 6 mph 1023.9mb 49f 44f
3:18am 2 6 mph 1023.9mb 49f 44f
3:12am 1 5 mph 1024mb 49f 44f
3:06am 2 6 mph 1023.9mb 49f 44f
3:00am 3 9 mph 1024mb 49f 44f
2:54am 2 8 mph 1024.1mb 49f 44f
2:48am 2 6 mph 1024.1mb 49f 44f
2:42am 1 8 mph 1024.1mb 49f 44f
2:36am 5 8 mph 1024.2mb 49f 45f
2:30am 2 9 mph 1024.2mb 49f 45f
2:24am 1 6 mph 1024.2mb 49f 45f
2:18am 2 5 mph 1024.2mb 49f -
2:12am 5 9 mph 1024.3mb 49f 45f
2:06am 3 7 mph 1024.4mb 49f 45f
2:00am 3 8 mph 1024.4mb 49f 45f
1:54am 3 6 mph 1024.3mb 49f 45f
1:48am 2 9 mph 1024.3mb 49f 45f
1:42am 3 5 mph 1024.3mb 49f 45f
1:36am 2 7 mph 1024.3mb 49f 45f
1:30am 2 7 mph 1024.3mb 49f 46f
1:24am 2 7 mph 1024.3mb 49f 46f
1:18am 2 6 mph 1024.3mb 49f 46f
1:12am 2 7 mph 1024.3mb 49f 46f
1:06am  -  5 mph 1024.2mb 49f 46f
1:00am  -  1 mph 1024.2mb 49f 46f
12:54am 2 7 mph 1024.2mb 49f 46f
12:48am 6 8 mph 1024.1mb 49f 46f
12:42am 6 8 mph 1024.1mb 49f 46f
12:36am 1 2 mph 1024.1mb 49f 46f
12:30am 1 6 mph 1024mb 49f 46f
12:24am 2 6 mph 1024.1mb 49f 46f
12:18am 3 5 mph 1024.1mb 49f -
12:12am 1 5 mph 1024.1mb 49f 46f
12:06am 2 6 mph 1024.1mb 49f 46f
12:00am 2 5 mph 1024.1mb 49f 46f
Wed 02/21 11:54pm 1 5 mph 1024.1mb 49f 46f
11:48pm 2 6 mph 1024.1mb 49f 46f
11:42pm 1 6 mph 1024.1mb 49f 47f
11:36pm 3 7 mph 1024.1mb 49f 47f
11:30pm  -  7 mph 1024mb 49f 47f
11:24pm 3 6 mph 1024mb 49f 47f
11:18pm 2 7 mph 1024mb 49f 47f
11:12pm 2 6 mph 1024mb 49f 47f
11:06pm 3 6 mph 1024mb 49f 47f
11:00pm 3 9 mph 1023.9mb 49f 47f
10:54pm 6 10 mph 1023.9mb 49f 47f
10:48pm 7 10 mph 1023.8mb 49f 47f
10:42pm 6 11 mph 1023.8mb 49f 47f
10:36pm 7 9 mph 1023.8mb 49f 47f
10:30pm 5 9 mph 1023.7mb 49f 47f
10:24pm 6 9 mph 1023.9mb 49f 47f
10:18pm 5 7 mph 1023.9mb 49f 47f
10:12pm 6 10 mph 1024mb 49f 47f
10:06pm 5 11 mph 1024mb 49f 47f
10:00pm 6 10 mph 1024mb 49f 47f
9:54pm 7 11 mph 1024mb 49f 47f
9:48pm 6 10 mph 1024mb 49f -
9:42pm 7 10 mph 1024mb 49f -
9:36pm 6 10 mph 1024mb 49f -
9:30pm 6 11 mph 1024.1mb 49f 48f
9:24pm 8 13 mph 1024.2mb 49f 47f
9:18pm 8 13 mph 1024.2mb 49f -
9:12pm 10 14 mph 1024.2mb 49f 47f
9:06pm 9 13 mph 1024.2mb 49f 47f
9:00pm 6 9 mph 1024.1mb 49f 47f
8:54pm 7 10 mph 1024.1mb 49f 47f
8:48pm 5 8 mph 1024mb 49f 47f
8:42pm 3 8 mph 1023.9mb 49f 47f
8:36pm 3 6 mph 1023.9mb 49f 47f
8:30pm 3 6 mph 1023.9mb 49f 47f
8:24pm 2 8 mph 1023.8mb 49f 47f
8:18pm 3 7 mph 1023.8mb 49f 47f
8:12pm 2 8 mph 1023.7mb 49f 47f
8:06pm 3 6 mph 1023.7mb 49f 47f
8:00pm 3 6 mph 1023.7mb 49f 47f
7:54pm 3 8 mph 1023.7mb 49f 47f
7:48pm 3 6 mph 1023.8mb 49f 47f
7:42pm 5 8 mph 1023.8mb 49f 47f
7:36pm 1 6 mph 1023.8mb 49f 47f
7:30pm 3 7 mph 1023.8mb 49f 47f
7:24pm 2 5 mph 1023.8mb 49f 47f
7:18pm 2 5 mph 1023.8mb 49f 47f
7:12pm 5 8 mph 1023.8mb 49f 47f
7:06pm 2 3 mph 1023.9mb 49f 47f
7:00pm 1 5 mph 1023.9mb 49f 47f
6:54pm 1 5 mph 1023.9mb 49f 47f
6:48pm 1 5 mph 1023.8mb 49f 47f
6:42pm 2 6 mph 1023.7mb 49f 47f
6:36pm 2 6 mph 1023.7mb 49f 47f
6:30pm 3 6 mph 1023.7mb 49f 47f
6:24pm 2 5 mph 1023.6mb 49f 47f
6:18pm  -  5 mph 1023.6mb 49f 47f
6:12pm 1 6 mph 1023.6mb 49f 47f
6:06pm 2 6 mph 1023.7mb 50f 47f
6:00pm 2 5 mph 1023.6mb 50f 47f
5:54pm 2 5 mph 1023.5mb 51f 47f
5:48pm 2 6 mph 1023.5mb 50f 48f
5:42pm 3 7 mph 1023.6mb 50f 48f
5:36pm 5 7 mph 1023.5mb 50f 48f
5:30pm 5 6 mph 1023.5mb 51f 48f
5:24pm 6 8 mph 1023.5mb 50f 48f
5:18pm 7 10 mph 1023.5mb 50f 48f
5:12pm 6 9 mph 1023.5mb 50f 49f
5:06pm 6 10 mph 1023.4mb 50f 49f
5:00pm 6 10 mph 1023.3mb 50f 49f
4:54pm 7 11 mph 1023.3mb 50f 49f
4:48pm 6 9 mph 1023.3mb 50f 49f
4:42pm 5 10 mph 1023.4mb 50f 49f
4:36pm 7 10 mph 1023.4mb 50f 49f
4:30pm 8 14 mph 1023.5mb 50f 49f
4:24pm 7 11 mph 1023.5mb 50f 49f
4:18pm 6 14 mph 1023.6mb 50f 49f
4:12pm 6 11 mph 1023.7mb 50f 49f
4:06pm 6 15 mph 1023.7mb 50f 49f
4:00pm 6 14 mph 1023.8mb 50f 49f
3:54pm 6 14 mph 1023.8mb 51f 49f
3:48pm 9 14 mph 1023.8mb 50f 49f
3:42pm 8 16 mph 1023.7mb 50f 49f
3:36pm 13 17 mph 1023.7mb 49f 49f
3:30pm 13 16 mph 1023.7mb 49f 49f
3:24pm 9 14 mph 1023.8mb 49f 49f
3:18pm 9 17 mph 1023.9mb 49f 49f
3:12pm 11 15 mph 1023.9mb 49f 49f
3:06pm 10 16 mph 1024mb 49f 49f
3:00pm 13 16 mph 1023.9mb 49f 49f
2:54pm 11 16 mph 1023.9mb 49f 49f
2:48pm 11 16 mph 1024mb 49f 49f
2:42pm 10 15 mph 1024mb 49f 48f
2:36pm 10 15 mph 1024.1mb 49f 49f
2:30pm 9 14 mph 1024.1mb 49f 49f
2:24pm 9 14 mph 1024.2mb 49f 49f
2:18pm 10 14 mph 1024.2mb 49f 49f
2:12pm 11 15 mph 1024.2mb 49f 49f
2:06pm 10 16 mph 1024.2mb 49f 49f
2:00pm 10 13 mph 1024.2mb 49f 48f
1:54pm 10 13 mph 1024.2mb 49f 48f
1:48pm 11 14 mph 1024.4mb 49f 48f
1:42pm 11 15 mph 1024.4mb 49f 48f
1:36pm 9 11 mph 1024.3mb 49f 48f
1:30pm 8 13 mph 1024.3mb 49f 48f
1:24pm 8 13 mph 1024.3mb 49f 48f
1:18pm 9 11 mph 1024.3mb 49f 48f
1:12pm 10 13 mph 1024.4mb 49f 48f
1:06pm 8 10 mph 1024.4mb 49f 48f
1:00pm 7 9 mph 1024.3mb 49f 48f
12:54pm 6 9 mph 1024.4mb 49f 48f
12:48pm 8 9 mph 1024.4mb 49f 48f
12:42pm 8 10 mph 1024.4mb 49f 48f
12:36pm 7 10 mph 1024.5mb 49f 48f
12:30pm 6 8 mph 1024.5mb 49f 48f
12:24pm 7 8 mph 1024.6mb 49f 48f
12:18pm 6 7 mph 1024.6mb 49f 48f
12:12pm 6 8 mph 1024.6mb 49f 48f
12:06pm 3 5 mph 1024.6mb 49f 49f
12:00pm 6 6 mph 1024.7mb 49f 48f
11:54am 5 6 mph 1024.8mb 49f 48f
11:48am 6 6 mph 1024.8mb 49f 48f
11:42am 5 6 mph 1024.8mb 49f 48f
11:36am 6 6 mph 1024.9mb 49f 48f
11:30am 5 5 mph 1024.9mb 49f 48f
11:24am 5 5 mph 1024.8mb 49f 48f
11:18am 5 5 mph 1024.8mb 49f 48f
11:12am 3 5 mph 1024.8mb 48f 48f
11:06am 3 5 mph 1024.6mb 48f 48f
11:00am 3 5 mph 1024.6mb 48f 48f
10:54am 3 5 mph 1024.5mb 48f 48f
10:48am 5 6 mph 1024.4mb 48f 48f
10:42am 5 6 mph 1024.3mb 48f 48f
10:36am 3 5 mph 1024.2mb 48f 48f
10:30am 2 3 mph 1024.1mb 48f 48f
10:24am 2 3 mph 1024.1mb 48f 48f
10:18am 2 5 mph 1024.1mb 48f 48f
10:12am 5 5 mph 1024mb 48f 48f
10:06am 3 5 mph 1024mb 48f 48f
10:00am 3 6 mph 1023.9mb 48f 48f
9:54am 6 7 mph 1023.8mb 48f 48f
9:48am 3 7 mph 1023.7mb 48f 48f
9:42am 3 6 mph 1023.6mb 48f 49f
9:36am 1 7 mph 1023.6mb 48f 49f
9:30am 3 7 mph 1023.4mb 48f 48f
9:24am 8 10 mph 1023.4mb 48f 47f
9:18am 2 5 mph 1023.3mb 48f 48f
9:12am 2 5 mph 1023.2mb 48f 48f
9:06am 2 6 mph 1023.2mb 48f 48f
9:00am 3 6 mph 1023.2mb 48f 47f
8:54am 2 6 mph 1023.2mb 48f 47f
8:48am 2 5 mph 1023.2mb 48f 46f
8:42am 3 6 mph 1023.1mb 48f 45f
8:36am 5 6 mph 1023mb 48f 45f
8:30am 6 6 mph 1023mb 49f 44f
8:24am 5 6 mph 1023mb 48f 43f
8:18am 5 7 mph 1022.9mb 48f 43f
8:12am 6 8 mph 1022.9mb 48f 43f
8:06am 6 8 mph 1022.8mb 48f 42f
8:00am 7 8 mph 1022.8mb 48f 41f
7:54am 5 8 mph 1022.7mb 49f 40f
7:48am 6 7 mph 1022.6mb 49f 40f
7:42am 6 7 mph 1022.5mb 49f 40f
7:36am 6 7 mph 1022.4mb 49f 40f
7:30am 6 8 mph 1022.5mb 49f 40f
7:24am 6 9 mph 1022.5mb 48f 40f
7:18am 5 7 mph 1022.5mb 48f 40f
7:12am 6 7 mph 1022.5mb 48f 40f
7:06am 7 7 mph 1022.5mb 48f 40f
7:00am 6 8 mph 1022.4mb 48f 40f
6:54am 6 7 mph 1022.4mb 48f 40f
6:48am 6 8 mph 1022.3mb 48f 40f
6:42am 7 9 mph 1022.3mb 48f 40f
6:36am 6 8 mph 1022.3mb 48f 40f
6:30am 6 8 mph 1022.2mb 48f 40f
6:24am 6 7 mph 1022.2mb 48f 40f
6:18am 6 7 mph 1022.2mb 48f -
6:12am 6 7 mph 1022.1mb 48f 41f
6:06am 6 7 mph 1022.2mb 48f 40f
6:00am 5 7 mph 1022.2mb 48f 40f
5:54am 5 6 mph 1022.2mb 48f 41f
5:48am 5 6 mph 1022.1mb 48f 41f
5:42am 5 6 mph 1022.1mb 48f 41f
5:36am 3 6 mph 1022mb 48f 41f
5:30am 5 6 mph 1022.1mb 48f 41f
5:24am 5 6 mph 1022.1mb 48f 41f
5:18am 5 7 mph 1022.1mb 48f 41f
5:12am 5 6 mph 1022mb 48f 41f
5:06am 5 6 mph 1022mb 48f 41f
5:00am 5 6 mph 1022mb 48f 41f
4:54am 3 5 mph 1022mb 48f 41f
4:48am 3 6 mph 1022mb 48f 41f
4:42am 5 6 mph 1022mb 48f 41f
4:36am 5 6 mph 1021.9mb 48f 41f
4:30am 6 6 mph 1021.9mb 48f 41f
4:24am 5 6 mph 1021.9mb 48f 42f
4:18am 5 6 mph 1021.9mb 48f 42f
4:12am 5 6 mph 1021.8mb 48f 41f
4:06am 5 7 mph 1021.8mb 48f 41f
4:00am 6 7 mph 1021.8mb 48f 41f
3:54am 6 7 mph 1021.7mb 48f 41f
3:48am 6 7 mph 1021.8mb 48f 41f
3:42am 6 7 mph 1021.7mb 48f 41f
3:36am 6 7 mph 1021.7mb 48f 40f
3:30am 7 8 mph 1021.6mb 48f 40f
3:24am 6 8 mph 1021.6mb 48f 40f
3:18am 7 7 mph 1021.6mb 48f 40f
3:12am 6 7 mph 1021.5mb 48f 39f
3:06am 6 8 mph 1021.5mb 48f 39f
3:00am 7 8 mph 1021.5mb 48f 38f
2:54am 7 9 mph 1021.6mb 48f 39f
2:48am 8 9 mph 1021.6mb 48f 39f
2:42am 9 9 mph 1021.6mb 48f 39f
2:36am 8 9 mph 1021.6mb 48f 38f
2:30am 8 9 mph 1021.7mb 48f 39f
2:24am 8 9 mph 1021.6mb 48f 38f
2:18am 8 9 mph 1021.7mb 48f 38f
2:12am 8 8 mph 1021.6mb 48f 39f
2:06am 7 8 mph 1021.6mb 48f 39f
2:00am 8 9 mph 1021.7mb 48f 39f
1:54am 7 8 mph 1021.6mb 48f 39f
1:48am 7 8 mph 1021.6mb 48f 39f
1:42am 8 8 mph 1021.6mb 48f 39f
1:36am 8 9 mph 1021.7mb 48f 39f
1:30am 8 9 mph 1021.6mb 48f 38f
1:24am 8 9 mph 1021.9mb 48f 39f
1:18am 8 9 mph 1022.1mb 48f 39f
1:12am 8 9 mph 1022.2mb 48f 39f
1:06am 8 9 mph 1022.5mb 48f 39f
1:00am 8 9 mph 1022.6mb 48f 39f
12:54am 8 9 mph 1022.4mb 48f 39f
12:48am 8 9 mph 1022.5mb 48f 39f
12:42am 8 9 mph 1022.5mb 48f 38f
12:36am 9 9 mph 1022.4mb 48f 38f
12:30am 8 9 mph 1022.4mb 48f 38f
12:24am 8 9 mph 1022.5mb 48f 38f
12:18am 9 9 mph 1022.6mb 48f 38f
12:12am 8 9 mph 1022.8mb 48f 38f
12:06am 8 9 mph 1022.7mb 48f 38f
12:00am 9 9 mph 1022.7mb 48f 37f
Tue 02/20 11:54pm 8 10 mph 1022.9mb 48f 37f
11:48pm 9 10 mph 1022.9mb 48f 37f
11:42pm 9 9 mph 1023mb 48f 37f
11:36pm 9 9 mph 1023mb 48f 37f
11:30pm 8 9 mph 1022.9mb 48f 38f
11:24pm 8 9 mph 1022.8mb 48f 38f
11:18pm 9 9 mph 1022.7mb 48f 37f
11:12pm 8 9 mph 1022.7mb 49f 37f
11:06pm 8 9 mph 1022.6mb 49f 37f
11:00pm 9 10 mph 1022.6mb 49f 37f
10:54pm 9 9 mph 1022.7mb 48f 38f
10:48pm 8 9 mph 1022.7mb 49f -
10:42pm 7 9 mph 1022.7mb 48f 38f
10:36pm 8 9 mph 1022.8mb 48f 38f
10:30pm 8 9 mph 1022.8mb 48f 38f
10:24pm 9 9 mph 1022.9mb 49f 39f
10:18pm 7 8 mph 1023mb 49f 39f
10:12pm 7 8 mph 1023mb 49f 39f
10:06pm 7 8 mph 1023mb 49f 39f
10:00pm 7 8 mph 1023.1mb 49f 40f
9:54pm 7 8 mph 1023mb 49f 40f
9:48pm 7 7 mph 1023.1mb 49f 40f
9:42pm 7 8 mph 1023.1mb 49f 40f
9:36pm 7 8 mph 1023.2mb 49f 40f
9:30pm 7 7 mph 1023.3mb 49f 40f
9:24pm 7 8 mph 1023.3mb 49f 40f
9:18pm 7 7 mph 1023.2mb 49f -
9:12pm 7 7 mph 1023.2mb 49f 40f
9:06pm 6 7 mph 1023.2mb 49f 40f
9:00pm 6 7 mph 1023.2mb 49f 41f
8:54pm 6 7 mph 1023.2mb 49f 41f
8:48pm 6 6 mph 1023.2mb 49f 41f
8:42pm 5 6 mph 1023.3mb 49f 41f
8:36pm 5 6 mph 1023.3mb 49f 41f
8:30pm 6 6 mph 1023.2mb 49f 41f
8:24pm 6 6 mph 1023.2mb 49f 41f
8:18pm 6 6 mph 1023.2mb 49f 42f
8:12pm 5 6 mph 1023.2mb 49f 42f
8:06pm 6 6 mph 1023.1mb 49f 42f
8:00pm 5 6 mph 1023.2mb 49f 42f
7:54pm 5 5 mph 1023.1mb 49f 43f
7:48pm 3 3 mph 1023.1mb 49f 43f
7:42pm 2 3 mph 1023.2mb 49f 44f
7:36pm 3 3 mph 1023.3mb 49f 44f
7:30pm 2 3 mph 1023.3mb 49f 44f
7:24pm 3 3 mph 1023.3mb 49f 44f
7:18pm 3 5 mph 1023.3mb 49f 44f
7:12pm 2 3 mph 1023.3mb 50f 45f
7:06pm 2 2 mph 1023.3mb 49f 45f
7:00pm 1 2 mph 1023.3mb 49f 45f
6:54pm 1 3 mph 1023.2mb 49f 45f
6:48pm 2 5 mph 1023.3mb 49f 45f
6:42pm 1 2 mph 1023.3mb 49f 45f
6:36pm  -  2 mph 1023.4mb 49f 46f
6:30pm 2 5 mph 1023.4mb 49f 46f
6:24pm 1 3 mph 1023.4mb 49f 46f
6:18pm 2 5 mph 1023.4mb 49f 46f
6:12pm 2 5 mph 1023.4mb 49f 46f
6:06pm 1 3 mph 1023.5mb 49f 46f
6:00pm 2 5 mph 1023.5mb 50f 46f
5:54pm 3 5 mph 1023.5mb 49f 46f
5:48pm 3 5 mph 1023.5mb 49f 46f
5:42pm 2 6 mph 1023.5mb 49f 46f
5:36pm 3 6 mph 1023.5mb 49f 46f
5:30pm 3 6 mph 1023.6mb 49f 46f
5:24pm 5 7 mph 1023.6mb 49f 46f
5:18pm 5 7 mph 1023.7mb 49f 46f
5:12pm 5 9 mph 1023.7mb 49f 46f
5:06pm 6 9 mph 1023.7mb 49f 46f
5:00pm 6 8 mph 1023.7mb 49f 46f
4:54pm 6 10 mph 1023.7mb 49f 47f
4:48pm 6 10 mph 1023.7mb 49f 47f
4:42pm 8 11 mph 1023.7mb 49f 47f
4:36pm 6 10 mph 1023.7mb 49f 47f
4:30pm 7 9 mph 1023.7mb 49f 47f
4:24pm 6 10 mph 1023.6mb 49f 47f
4:18pm 8 14 mph 1023.6mb 49f 47f
4:12pm 8 11 mph 1023.5mb 49f 47f
4:06pm 8 15 mph 1023.5mb 49f 47f
4:00pm 7 10 mph 1023.5mb 49f 47f
3:54pm 8 13 mph 1023.6mb 49f 47f
3:48pm 8 11 mph 1023.6mb 49f 47f
3:42pm 8 14 mph 1023.7mb 49f 47f
3:36pm 9 13 mph 1023.6mb 49f 47f
3:30pm 9 13 mph 1023.7mb 49f 47f
3:24pm 10 14 mph 1023.6mb 49f 47f
3:18pm 8 11 mph 1023.7mb 49f 47f
3:12pm 5 15 mph 1023.6mb 49f 47f
3:06pm 10 17 mph 1023.6mb 49f 47f
3:00pm 11 18 mph 1023.7mb 49f 47f
2:54pm 11 18 mph 1023.8mb 49f 47f
2:48pm 13 17 mph 1023.8mb 49f 47f
2:42pm 13 17 mph 1023.8mb 49f 47f
2:36pm 10 18 mph 1023.8mb 49f 47f
2:30pm 9 17 mph 1023.8mb 49f 47f
2:24pm 10 18 mph 1023.8mb 49f 47f
2:18pm 11 16 mph 1023.8mb 49f 47f
2:12pm 11 17 mph 1023.9mb 49f 47f
2:06pm 11 16 mph 1023.9mb 49f 47f
2:00pm 10 18 mph 1024mb 49f 47f
1:54pm 14 21 mph 1024mb 49f 46f
1:48pm 10 14 mph 1024mb 49f 47f
1:42pm 7 15 mph 1024.1mb 49f 47f
1:36pm 11 15 mph 1024mb 49f 46f
1:30pm 9 15 mph 1024mb 49f 47f
1:24pm 13 17 mph 1024.1mb 49f 47f
1:18pm 10 16 mph 1024.2mb 49f 47f
1:12pm 10 16 mph 1024.3mb 49f 46f
1:06pm 13 17 mph 1024.3mb 49f 46f
1:00pm 11 20 mph 1024.3mb 50f 46f
12:54pm 13 21 mph 1024.4mb 49f 46f
12:48pm 10 16 mph 1024.5mb 49f 46f
12:42pm 14 18 mph 1024.4mb 49f 46f
12:36pm 13 18 mph 1024.5mb 49f 45f
12:30pm 15 20 mph 1024.6mb 49f 46f
12:24pm 10 16 mph 1024.6mb 49f 46f
12:18pm 9 14 mph 1024.7mb 49f 46f
12:12pm 9 15 mph 1024.9mb 49f 45f
12:06pm 10 15 mph 1024.7mb 49f 46f
12:00pm 10 16 mph 1024.9mb 49f 45f
11:54am 10 16 mph 1024.9mb 49f 45f
11:48am 14 18 mph 1025mb 49f 45f
11:42am 8 18 mph 1025mb 49f 46f
11:36am 9 16 mph 1025.1mb 49f 46f
11:30am 11 16 mph 1025.1mb 48f 46f
11:24am 10 15 mph 1025.2mb 48f 45f
11:18am 8 14 mph 1025.3mb 48f 45f
11:12am 8 13 mph 1025.3mb 48f 45f
11:06am 9 15 mph 1025.4mb 48f 44f
11:00am 10 14 mph 1025.3mb 48f 44f
10:54am 8 15 mph 1025.3mb 48f 44f
10:48am 7 13 mph 1025.3mb 48f 44f
10:42am 5 14 mph 1025.3mb 48f 45f
10:36am 6 13 mph 1025.3mb 48f 45f
10:30am 9 14 mph 1025.2mb 48f 44f
10:24am 9 14 mph 1025.2mb 48f 44f
10:18am 7 14 mph 1025.1mb 48f 44f
10:12am 7 14 mph 1025mb 48f 44f
10:06am 7 11 mph 1025mb 48f 44f
10:00am 6 11 mph 1025mb 48f 44f
9:54am 7 10 mph 1025mb 48f 44f
9:48am 7 11 mph 1025.1mb 48f 44f
9:42am 7 9 mph 1025.1mb 48f 44f
9:36am 6 11 mph 1025mb 48f 43f
9:30am 3 9 mph 1025.1mb 48f 44f
9:24am 6 11 mph 1025mb 48f 43f
9:18am 5 8 mph 1025mb 48f 43f
9:12am 3 7 mph 1025.1mb 48f 43f
9:06am 3 9 mph 1025mb 48f 43f
9:00am 5 8 mph 1025.1mb 48f 43f
8:54am 6 11 mph 1025.2mb 48f 42f
8:48am 5 10 mph 1025.2mb 48f 42f
8:42am 5 7 mph 1025.1mb 48f 42f
8:36am 5 7 mph 1025.2mb 48f 42f
8:30am 3 7 mph 1025.2mb 48f 42f
8:24am 5 7 mph 1025.1mb 48f 42f
8:18am 2 6 mph 1025mb 48f 42f
8:12am 3 5 mph 1024.9mb 48f 42f
8:06am 1 6 mph 1024.8mb 48f 42f
8:00am 2 3 mph 1024.9mb 48f 41f
7:54am 2 6 mph 1024.8mb 48f 41f
7:48am 2 5 mph 1024.7mb 48f 41f
7:42am  -  3 mph 1024.6mb 48f 41f
7:36am 1 5 mph 1024.5mb 48f 40f
7:30am 1 3 mph 1024.5mb 48f 40f
7:24am 1 5 mph 1024.4mb 48f 40f
7:18am 1 6 mph 1024.4mb 48f 40f
7:12am 1 6 mph 1024.5mb 48f 40f
7:06am 2 5 mph 1024.5mb 48f 40f
7:00am 2 6 mph 1024.5mb 48f 39f
6:54am 2 6 mph 1024.5mb 48f 39f
6:48am 1 5 mph 1024.6mb 48f 39f
6:42am 2 6 mph 1024.5mb 48f 39f
6:36am 2 6 mph 1024.4mb 48f 39f
6:30am 2 5 mph 1024.4mb 48f 38f
6:24am 2 5 mph 1024.4mb 48f 39f
6:18am 3 7 mph 1024.4mb 48f 39f
6:12am 2 6 mph 1024.5mb 48f 39f
6:06am 2 6 mph 1024.4mb 48f 39f
6:00am 3 7 mph 1024.5mb 48f 39f
5:54am 3 7 mph 1024.5mb 48f 39f
5:48am 2 5 mph 1024.5mb 48f 39f
5:42am 3 6 mph 1024.5mb 48f 39f
5:36am 1 5 mph 1024.5mb 48f 39f
5:30am 3 7 mph 1024.5mb 48f 39f
5:24am 3 6 mph 1024.6mb 48f 39f
5:18am 2 6 mph 1024.6mb 48f 39f
5:12am 2 7 mph 1024.6mb 48f 39f
5:06am 3 7 mph 1024.6mb 48f 40f
5:00am 1 6 mph 1024.5mb 48f 39f
4:54am 3 8 mph 1024.5mb 48f 39f
4:48am 3 8 mph 1024.4mb 48f 40f
4:42am 3 8 mph 1024.4mb 48f 40f
4:36am 5 7 mph 1024.5mb 48f 40f
4:30am 2 6 mph 1024.3mb 48f 40f
4:24am 3 8 mph 1024.2mb 48f 40f
4:18am 2 6 mph 1024.2mb 48f 40f
4:12am 3 6 mph 1024.1mb 48f 40f
4:06am 2 9 mph 1024.1mb 48f 40f
4:00am 5 8 mph 1024.1mb 48f 40f
3:54am 3 6 mph 1024.3mb 48f 39f
3:48am 3 6 mph 1024.3mb 48f -
3:42am 3 9 mph 1024.3mb 48f 40f
3:36am 3 8 mph 1024.2mb 48f 40f
3:30am 5 8 mph 1024.3mb 48f 39f
3:24am 3 8 mph 1024.2mb 48f 40f
3:18am 3 8 mph 1024.2mb 48f 40f
3:12am 3 9 mph 1024.2mb 48f 40f
3:06am 3 8 mph 1024.3mb 48f 40f
3:00am 3 7 mph 1024.3mb 48f 39f
2:54am 3 6 mph 1024.3mb 48f 39f
2:48am 2 6 mph 1024.3mb 48f 39f
2:42am 3 9 mph 1024.2mb 49f 39f
2:36am 3 8 mph 1024.2mb 49f 39f
2:30am 2 8 mph 1024.3mb 48f 39f
2:24am 2 8 mph 1024.3mb 48f 39f
2:18am 2 9 mph 1024.4mb 48f 39f
2:12am 2 7 mph 1024.4mb 49f 39f
2:06am 3 9 mph 1024.4mb 49f 39f
2:00am 3 6 mph 1024.4mb 49f 40f
1:54am 2 5 mph 1024.4mb 49f 40f
1:48am 3 11 mph 1024.5mb 49f 41f
1:42am 2 5 mph 1024.5mb 49f 41f
1:36am 2 6 mph 1024.5mb 49f 41f
1:30am 3 7 mph 1024.5mb 49f 41f
1:24am 5 8 mph 1024.4mb 49f 41f
1:18am 3 8 mph 1024.4mb - -
1:12am 1 6 mph 1024.3mb 49f 40f
1:06am 1 8 mph 1024.4mb 49f 39f
1:00am 2 6 mph 1024.4mb 49f 39f
12:54am 2 7 mph 1024.4mb 49f 39f
12:48am 3 7 mph 1024.4mb 49f 39f
12:42am 2 8 mph 1024.5mb 49f 39f
12:36am 3 8 mph 1024.5mb 49f 39f
12:30am 2 8 mph 1024.5mb 49f 39f
12:24am 5 10 mph 1024.5mb 49f 40f
12:18am 5 7 mph 1024.5mb 49f 40f
12:12am 3 8 mph 1024.4mb 49f 39f
12:06am 2 7 mph 1024.4mb 49f 39f
12:00am 5 8 mph 1024.3mb 49f 39f
Mon 02/19 11:54pm 2 6 mph 1024.2mb 49f 39f
11:48pm 3 7 mph 1024.2mb - -
11:42pm 1 5 mph 1024.2mb 49f 39f
11:36pm 1 5 mph 1024.1mb 49f 39f
11:30pm 2 5 mph 1024.1mb 49f 40f
11:24pm 3 6 mph 1024.1mb 49f 40f
11:18pm 1 5 mph 1024mb 49f 40f
11:12pm 3 6 mph 1023.9mb 49f 40f
11:06pm 2 5 mph 1023.9mb 49f 40f
11:00pm 2 7 mph 1023.8mb 49f 40f
10:54pm 5 9 mph 1023.8mb 49f 40f
10:48pm 3 9 mph 1023.8mb 49f 40f
10:42pm 2 5 mph 1023.7mb 49f 40f
10:36pm 2 6 mph 1023.6mb 49f 40f
10:30pm 2 6 mph 1023.5mb 49f 40f
10:24pm 2 6 mph 1023.4mb 49f 41f
10:18pm 2 6 mph 1023.2mb 49f 41f
10:12pm 1 5 mph 1023.1mb 49f 41f
10:06pm 2 6 mph 1023.1mb 49f 42f
10:00pm 1 6 mph 1023mb 49f 42f
9:54pm 3 7 mph 1023mb 49f 41f
9:48pm 5 11 mph - - -
9:42pm 5 7 mph - - -
9:36pm 3 7 mph - - -
9:30pm 2 6 mph 1022.9mb 49f 42f
9:24pm 2 8 mph 1022.9mb 49f 42f
9:18pm 2 6 mph - - -
9:12pm 3 6 mph 1022.8mb 49f 42f
9:06pm 3 8 mph 1022.6mb 49f 42f
9:00pm 6 9 mph 1022.5mb 49f 42f
8:54pm 3 8 mph 1022.5mb 49f 43f
8:48pm 2 9 mph 1022.5mb 49f 43f
8:42pm 3 9 mph 1022.4mb 49f 43f
8:36pm 2 14 mph 1022.3mb 49f 43f
8:30pm 3 10 mph 1022.2mb 49f 43f
8:24pm 3 9 mph 1022.1mb 49f 44f
8:18pm 8 10 mph 1022mb 49f 44f
8:12pm 5 11 mph 1022mb 49f 44f
8:06pm 3 8 mph 1021.9mb 49f 44f
8:00pm 5 11 mph 1021.7mb 49f 44f
7:54pm 6 10 mph 1021.7mb 49f 44f
7:48pm 6 10 mph 1021.6mb 49f 44f
7:42pm 5 9 mph 1021.5mb 49f 44f
7:36pm 5 10 mph 1021.5mb 49f 44f
7:30pm 9 18 mph 1021.4mb 49f 44f
7:24pm 6 11 mph 1021.4mb 49f 44f
7:18pm 6 11 mph 1021.4mb 49f 44f
7:12pm 7 14 mph 1021.3mb 49f 45f
7:06pm 5 17 mph 1021.2mb 49f 45f
7:00pm 6 15 mph 1021.1mb 49f 45f
6:54pm 7 13 mph 1021mb 49f 45f
6:48pm 5 10 mph 1020.9mb 49f 45f
6:42pm 6 9 mph 1020.8mb 49f 45f
6:36pm 7 15 mph 1020.7mb 49f 45f
6:30pm 6 13 mph 1020.6mb 49f 45f
6:24pm 6 11 mph 1020.4mb 49f 45f
6:18pm 6 14 mph 1020.4mb 49f 45f
6:12pm 7 13 mph 1020.4mb 49f 45f
6:06pm 8 13 mph 1020.4mb 49f 45f
6:00pm 8 14 mph 1020.4mb 49f 45f
5:54pm 8 13 mph 1020.4mb 49f 45f
5:48pm 5 14 mph 1020.5mb 49f 45f
5:42pm 8 15 mph 1020.4mb 49f 45f
5:36pm 7 11 mph 1020.3mb 49f 45f
5:30pm 6 14 mph 1020.3mb 49f 46f
5:24pm 9 15 mph 1020.3mb 49f 46f
5:18pm 11 18 mph 1020.1mb 49f 46f
5:12pm 13 21 mph 1020.2mb 49f 46f
5:06pm 8 15 mph 1020.1mb 49f 46f
5:00pm 13 20 mph 1020mb 49f 46f
4:54pm 11 18 mph 1020mb 49f 46f
4:48pm 10 20 mph 1020mb 49f 47f
4:42pm 11 20 mph 1020mb 49f 47f
4:36pm 9 14 mph 1019.9mb 49f 47f
4:30pm 9 15 mph 1020mb 49f 46f
4:24pm 14 22 mph 1020mb 49f 46f
4:18pm 11 17 mph 1019.9mb 49f 47f
4:12pm 10 16 mph 1019.9mb 49f 47f
4:06pm 10 16 mph 1019.8mb 49f 47f
4:00pm 10 17 mph 1019.8mb 49f 47f
3:54pm 10 20 mph 1019.8mb 49f 47f
3:48pm 13 20 mph 1019.7mb 49f 47f
3:42pm 9 17 mph 1019.7mb 49f 47f
3:36pm 14 21 mph 1019.7mb 49f 47f
3:30pm 11 17 mph 1019.7mb 49f 47f
3:24pm 10 17 mph 1019.7mb 49f 47f
3:18pm 13 22 mph 1019.7mb 49f 47f
3:12pm 11 17 mph 1019.7mb 49f 47f
3:06pm 11 18 mph 1019.7mb 49f 47f
3:00pm 13 24 mph 1019.6mb 49f 47f
2:54pm 17 23 mph 1019.6mb 49f 47f
2:48pm 13 20 mph 1019.6mb 49f 47f
2:42pm 11 26 mph 1019.7mb 49f 47f
2:36pm 15 23 mph 1019.6mb 49f 47f
2:30pm 15 21 mph 1019.5mb 49f 47f
2:24pm 13 21 mph 1019.5mb 49f 47f
2:18pm 11 18 mph 1019.5mb 49f 47f
2:12pm 11 21 mph 1019.5mb 49f 47f
2:06pm 14 23 mph 1019.5mb 49f 47f
2:00pm 13 21 mph 1019.5mb 49f 47f
1:54pm 15 23 mph 1019.4mb 49f 47f
1:48pm 11 22 mph 1019.5mb 49f 46f
1:42pm 13 24 mph 1019.4mb 49f 46f
1:36pm 14 22 mph 1019.4mb 49f 46f
1:30pm 10 20 mph 1019.5mb 49f 47f
1:24pm 11 22 mph 1019.5mb 49f 46f
1:18pm 10 16 mph 1019.5mb 49f 46f
1:12pm 10 18 mph 1019.5mb 49f 46f
1:06pm 13 18 mph 1019.6mb 49f 46f
1:00pm 14 22 mph 1019.6mb 49f 46f
12:54pm 10 20 mph 1019.6mb 49f 46f
12:48pm 9 18 mph 1019.7mb 49f 46f
12:42pm 10 17 mph 1019.8mb 49f 46f
12:36pm 10 17 mph 1019.8mb 49f 46f
12:30pm 14 20 mph 1019.8mb 49f 46f
12:24pm 8 18 mph 1019.8mb 49f 46f
12:18pm 7 15 mph 1019.7mb 49f 46f
12:12pm 3 14 mph 1019.8mb 49f 46f
12:06pm 7 14 mph 1019.9mb 49f 46f
12:00pm 9 14 mph 1019.9mb 49f 45f
11:54am 8 15 mph 1020mb 49f 45f
11:48am 9 20 mph 1020.1mb 49f 45f
11:42am 8 16 mph 1020.1mb 49f 45f
11:36am 11 17 mph 1020mb 49f 45f
11:30am 6 17 mph 1020.1mb 49f 45f
11:24am 8 18 mph 1020.1mb 49f 45f
11:18am 9 15 mph 1020.2mb 49f 45f
11:12am 7 13 mph 1020.1mb 49f 45f
11:06am 6 13 mph 1020mb 49f 45f
11:00am 8 13 mph 1019.9mb 49f 45f
10:54am 7 14 mph 1019.9mb 49f 45f
10:48am 7 13 mph 1019.8mb 49f 44f
10:42am 6 10 mph 1019.9mb 49f 44f
10:36am 5 13 mph 1020mb 49f 44f
10:30am 3 9 mph 1019.9mb 49f 44f
10:24am 5 9 mph 1019.9mb 49f 44f
10:18am 3 11 mph 1019.8mb 49f 44f
10:12am 3 8 mph 1019.9mb 49f 44f
10:06am 5 9 mph 1019.8mb 49f 44f
10:00am 3 9 mph 1019.7mb 49f 44f
9:54am 3 11 mph 1019.7mb 49f 43f
9:48am 6 9 mph 1019.6mb 49f 43f
9:42am 5 9 mph 1019.6mb 49f 43f
9:36am 5 9 mph 1019.4mb 49f 43f
9:30am 6 9 mph 1019.4mb 49f 43f
9:24am 3 8 mph 1019.4mb 49f 43f
9:18am 3 8 mph 1019.5mb 49f 43f
9:12am 5 7 mph 1019.4mb 49f 43f
9:06am 3 9 mph 1019.3mb 49f 43f
9:00am 3 9 mph 1019.2mb 49f 43f
8:54am 5 7 mph 1019.1mb 49f 42f
8:48am 2 7 mph 1018.9mb 49f 42f
8:42am 3 6 mph 1018.9mb 49f 42f
8:36am 2 6 mph 1018.8mb 49f 42f
8:30am 2 6 mph 1018.8mb 49f 42f
8:24am 3 6 mph 1018.7mb 49f 41f
8:18am 2 5 mph 1018.6mb 49f 41f
8:12am 2 5 mph 1018.5mb 49f 40f
8:06am 2 6 mph 1018.5mb 49f 40f
8:00am 3 5 mph 1018.3mb 49f 40f
7:54am 3 7 mph 1018.2mb 49f 39f
7:48am 3 6 mph 1018.2mb 49f 39f
7:30am 2 6 mph 1017.8mb 49f 37f
7:24am 5 6 mph 1017.8mb 49f 37f
7:18am 3 6 mph 1017.8mb 49f 37f
7:12am 2 6 mph 1017.7mb 49f 37f
7:06am 3 7 mph 1017.5mb 49f 37f
7:00am 3 5 mph 1017.5mb 49f 38f
6:54am 2 5 mph 1017.5mb 49f 38f
6:48am 2 5 mph 1017.4mb 49f 37f
6:42am 2 5 mph 1017.4mb 49f 38f
6:36am 2 6 mph 1017.3mb 49f 38f
6:30am 3 6 mph 1017.2mb 49f 38f
6:24am 2 5 mph 1017.1mb 49f 38f
6:18am 2 6 mph 1017mb 49f 39f
6:12am 3 7 mph 1017mb 49f 39f
6:06am 3 6 mph 1016.9mb 49f 39f
6:00am  -  6 mph 1016.9mb 49f 39f
5:54am 3 15 mph 1016.9mb 49f 39f
5:48am 3 6 mph 1017mb 49f 39f
5:42am 2 5 mph 1016.8mb 49f 39f
5:36am 2 7 mph 1016.8mb 49f 39f
5:30am 3 6 mph 1016.8mb 49f 39f
5:24am 3 9 mph 1016.8mb 49f 39f
5:18am 1 8 mph 1016.8mb 49f 39f
5:12am 3 8 mph 1016.7mb 49f 40f
5:06am 3 6 mph 1016.6mb 49f 40f
5:00am 2 6 mph 1016.5mb 49f 40f
4:54am 2 9 mph 1016.5mb 49f 39f
4:48am 3 9 mph 1016.6mb 49f 39f
4:42am 6 14 mph 1016.6mb 49f 39f
4:36am 1 5 mph 1016.6mb 49f 39f
4:30am 2 5 mph 1016.6mb 49f 38f
4:24am 1 5 mph 1016.5mb 49f 38f
4:18am 2 6 mph 1016.5mb 49f 38f
4:12am 2 6 mph 1016.5mb 49f 38f
4:06am 3 7 mph 1016.4mb 49f 38f
4:00am 3 5 mph 1016.2mb 49f 38f
3:54am 3 6 mph 1016.1mb 49f 39f
3:48am 5 7 mph 1016.2mb 49f 38f
3:42am 2 6 mph 1016.3mb 49f 38f
3:36am 2 6 mph 1016.4mb 49f 39f
3:30am 3 5 mph 1016.4mb 49f 39f
3:24am 1 5 mph 1016.5mb 49f 39f
3:18am 2 8 mph 1016.5mb 49f 38f
3:12am 5 8 mph 1016.7mb 49f 38f
3:06am 3 7 mph 1016.6mb 49f 39f
3:00am 2 7 mph 1016.5mb 49f 39f